.
WxDataArchive / Data Records for 2012-04-08
2012-04-07 April 2012 2012-04-09

Data Records for Sunday, 08 April 2012

Time	Temp	Chill	HIndex	Humid	Dewpt	 Wind 	HiWind	WindDir	Rain 	Barom 
-----	----	-----	------	-----	-----	------	------	-------	-----	----- 
00:00	56.0	56.0	56.0	44	34.4	1	4	248	0.00	30.126 
00:05	55.6	55.6	55.6	47	35.7	1	2	248	0.00	30.126 
00:10	55.1	55.1	55.1	51	37.3	0	2	248	0.00	30.126 
00:15	54.7	54.7	54.7	54	38.4	0	1	248	0.00	30.121 
00:20	54.2	54.2	54.2	55	38.4	0	2	248	0.00	30.121 
00:25	53.9	53.9	53.9	56	38.6	0	1	248	0.00	30.121 
00:30	53.6	53.6	53.6	56	38.3	0	1	248	0.00	30.109 
00:35	53.5	53.5	53.5	56	38.2	0	1	248	0.00	30.109 
00:40	53.5	53.5	53.5	56	38.2	0	1	248	0.00	30.109 
00:45	53.5	53.5	53.5	56	38.2	0	1	248	0.00	30.109 
00:50	53.5	53.5	53.5	56	38.2	0	0	---	0.00	30.109 
00:55	53.5	53.5	53.5	56	38.2	0	0	---	0.00	30.109 
01:00	53.3	53.3	53.3	57	38.5	0	0	---	0.00	30.116 
01:05	53.3	53.3	53.3	57	38.5	0	0	---	0.00	30.116 
01:10	53.1	53.1	53.1	58	38.7	0	0	---	0.00	30.116 
01:15	53.1	53.1	53.1	58	38.7	0	1	248	0.00	30.115 
01:20	52.9	52.9	52.9	60	39.4	0	1	248	0.00	30.115 
01:25	52.8	52.8	52.8	60	39.3	0	1	248	0.00	30.115 
01:30	52.6	52.6	52.6	61	39.5	0	1	248	0.00	30.118 
01:35	52.5	52.5	52.5	61	39.4	0	1	248	0.00	30.118 
01:40	52.5	52.5	52.5	61	39.4	0	0	---	0.00	30.118 
01:45	52.3	52.3	52.3	64	40.5	0	2	248	0.00	30.132 
01:50	52.2	52.2	52.2	67	41.6	0	1	248	0.00	30.132 
01:55	51.7	51.7	51.7	69	41.9	0	1	248	0.01	30.132 
02:00	51.3	51.3	51.3	72	42.6	0	0	---	0.00	30.135 
02:05	51.0	51.0	51.0	74	43.0	0	0	---	0.00	30.135 
02:10	50.5	50.5	50.5	75	42.9	0	0	---	0.00	30.135 
02:15	50.2	50.2	50.2	77	43.3	0	0	---	0.00	30.130 
02:20	50.1	50.1	50.1	79	43.8	0	1	248	0.01	30.130 
02:25	49.9	49.9	49.9	81	44.3	0	0	---	0.00	30.130 
02:30	49.8	49.8	49.8	81	44.2	0	0	---	0.00	30.115 
02:35	49.5	49.5	49.5	82	44.2	0	0	---	0.00	30.115 
02:40	49.4	49.4	49.4	83	44.5	0	0	---	0.00	30.115 
02:45	49.4	49.4	49.4	84	44.8	0	0	---	0.00	30.111 
02:50	49.2	49.2	49.2	84	44.6	0	0	---	0.01	30.111 
02:55	49.1	49.1	49.1	85	44.8	0	0	---	0.00	30.111 
03:00	48.9	48.9	48.9	86	44.9	0	0	---	0.00	30.104 
03:05	48.9	48.9	48.9	87	45.2	0	0	---	0.00	30.104 
03:10	48.8	48.8	48.8	87	45.1	0	0	---	0.00	30.104 
03:15	48.8	48.8	48.8	88	45.4	0	0	---	0.00	30.109 
03:20	48.8	48.8	48.8	88	45.4	0	0	---	0.00	30.109 
03:25	48.8	48.8	48.8	89	45.7	0	0	---	0.00	30.109 
03:30	48.8	48.8	48.8	89	45.7	0	0	---	0.00	30.100 
03:35	48.8	48.8	48.8	89	45.7	0	0	---	0.00	30.100 
03:40	48.8	48.8	48.8	90	46.0	0	0	---	0.00	30.100 
03:45	48.8	48.8	48.8	90	46.0	0	0	---	0.00	30.104 
03:50	48.8	48.8	48.8	90	46.0	0	0	---	0.00	30.104 
03:55	48.8	48.8	48.8	91	46.3	0	0	---	0.00	30.104 
04:00	48.8	48.8	48.8	91	46.3	0	0	---	0.00	30.097 
04:05	48.8	48.8	48.8	91	46.3	0	0	---	0.00	30.097 
04:10	48.8	48.8	48.8	91	46.3	0	0	---	0.00	30.097 
04:15	48.8	48.8	48.8	91	46.3	0	0	---	0.00	30.104 
04:20	48.8	48.8	48.8	91	46.3	0	0	---	0.00	30.104 
04:25	48.8	48.8	48.8	91	46.3	0	0	---	0.00	30.104 
04:30	48.8	48.8	48.8	92	46.6	0	0	---	0.00	30.098 
04:35	48.8	48.8	48.8	92	46.6	0	0	---	0.00	30.098 
04:40	48.8	48.8	48.8	92	46.6	0	0	---	0.00	30.098 
04:45	48.8	48.8	48.8	92	46.6	0	0	---	0.00	30.100 
04:50	48.6	48.6	48.6	92	46.4	0	0	---	0.00	30.100 
04:55	48.6	48.6	48.6	92	46.4	0	0	---	0.00	30.100 
05:00	48.6	48.6	48.6	92	46.4	0	0	---	0.00	30.101 
05:05	48.6	48.6	48.6	92	46.4	0	0	---	0.00	30.101 
05:10	48.6	48.6	48.6	92	46.4	0	0	---	0.00	30.101 
05:15	48.6	48.6	48.6	92	46.4	0	0	---	0.00	30.095 
05:20	48.8	48.8	48.8	92	46.6	0	0	---	0.00	30.095 
05:25	48.8	48.8	48.8	92	46.6	0	0	---	0.00	30.095 
05:30	48.8	48.8	48.8	92	46.6	0	0	---	0.00	30.096 
05:35	48.8	48.8	48.8	92	46.6	0	2	45	0.00	30.096 
05:40	48.8	48.8	48.8	92	46.6	1	3	292	0.00	30.096 
05:45	49.2	49.2	49.2	90	46.4	1	4	315	0.00	30.100 
05:50	49.8	49.8	49.8	87	46.1	2	5	270	0.00	30.100 
05:55	50.4	50.4	50.4	84	45.7	3	5	270	0.00	30.100 
06:00	50.8	50.8	50.8	81	45.2	3	6	315	0.00	30.101 
06:05	51.1	51.1	51.1	79	44.8	3	7	270	0.00	30.101 
06:10	51.3	51.3	51.3	77	44.3	3	7	270	0.00	30.101 
06:15	51.3	51.3	51.3	77	44.3	2	5	315	0.00	30.109 
06:20	51.1	51.1	51.1	77	44.1	2	6	292	0.00	30.109 
06:25	51.0	51.0	51.0	77	44.0	1	4	315	0.00	30.109 
06:30	50.7	50.7	50.7	77	43.8	1	4	0	0.00	30.119 
06:35	50.5	50.5	50.5	77	43.6	2	4	315	0.00	30.119 
06:40	50.4	50.4	50.4	77	43.5	2	10	292	0.00	30.119 
06:45	50.1	50.1	50.1	77	43.2	2	4	292	0.00	30.121 
06:50	49.8	49.8	49.8	77	42.9	1	5	270	0.00	30.121 
06:55	49.6	49.6	49.6	77	42.7	2	6	270	0.00	30.121 
07:00	49.5	49.5	49.5	77	42.6	3	5	292	0.00	30.120 
07:05	49.4	49.4	49.4	77	42.5	1	4	338	0.00	30.120 
07:10	49.1	49.1	49.1	77	42.2	1	4	338	0.00	30.120 
07:15	48.9	48.9	48.9	77	42.0	1	3	338	0.00	30.134 
07:20	48.8	48.8	48.8	77	41.9	1	4	292	0.00	30.134 
07:25	48.8	48.8	48.8	77	41.9	1	4	338	0.00	30.134 
07:30	48.6	48.6	48.6	78	42.1	1	4	338	0.00	30.141 
07:35	48.5	48.5	48.5	78	42.0	2	6	270	0.00	30.141 
07:40	48.3	48.3	48.3	78	41.8	2	4	270	0.00	30.141 
07:45	48.3	48.3	48.3	77	41.4	1	6	315	0.00	30.149 
07:50	48.2	48.2	48.2	77	41.3	1	4	315	0.00	30.149 
07:55	48.2	48.2	48.2	77	41.3	2	6	338	0.00	30.149 
08:00	48.2	48.2	48.2	76	41.0	2	4	248	0.00	30.157 
08:05	48.2	48.2	48.2	76	41.0	1	2	292	0.00	30.157 
08:10	48.3	48.3	48.3	76	41.1	2	5	315	0.00	30.157 
08:15	48.5	48.5	48.5	75	40.9	2	4	338	0.00	30.163 
08:20	48.6	48.6	48.6	74	40.7	2	5	315	0.00	30.163 
08:25	48.8	48.8	48.8	73	40.5	1	6	270	0.00	30.163 
08:30	48.9	48.9	48.9	72	40.3	2	6	338	0.00	30.164 
08:35	48.9	48.9	48.9	70	39.6	2	5	270	0.00	30.164 
08:40	49.2	49.2	49.2	71	40.2	1	4	0	0.00	30.164 
08:45	49.5	49.5	49.5	69	39.8	1	4	315	0.00	30.169 
08:50	49.5	49.5	49.5	68	39.4	2	7	248	0.00	30.169 
08:55	49.6	49.6	49.6	65	38.3	2	6	270	0.00	30.169 
09:00	49.8	49.8	49.8	66	38.9	2	5	292	0.00	30.174 
09:05	49.9	49.9	49.9	63	37.8	2	6	270	0.00	30.174 
09:10	50.1	50.1	50.1	61	37.2	2	7	270	0.00	30.174 
09:15	50.2	50.2	50.2	59	36.4	2	7	270	0.00	30.176 
09:20	50.5	50.5	50.5	58	36.3	2	7	292	0.00	30.176 
09:25	50.7	50.7	50.7	57	36.0	3	7	248	0.00	30.176 
09:30	50.8	50.8	50.8	55	35.2	2	6	315	0.00	30.170 
09:35	51.1	51.1	51.1	55	35.5	2	4	315	0.00	30.170 
09:40	51.3	51.3	51.3	55	35.7	3	7	270	0.00	30.170 
09:45	51.4	51.4	51.4	54	35.3	3	5	270	0.00	30.171 
09:50	51.6	51.6	51.6	52	34.6	3	7	292	0.00	30.171 
09:55	51.9	51.9	51.9	52	34.8	3	9	270	0.00	30.171 
10:00	52.2	52.2	52.2	52	35.1	2	4	315	0.00	30.173 
10:05	52.5	52.5	52.5	51	34.9	2	4	315	0.00	30.173 
10:10	52.8	52.8	52.8	50	34.7	2	6	315	0.00	30.173 
10:15	52.8	52.8	52.8	50	34.7	3	7	338	0.00	30.173 
10:20	53.1	53.1	53.1	50	35.0	2	5	315	0.00	30.173 
10:25	53.5	53.5	53.5	47	33.8	2	6	270	0.00	30.173 
10:30	53.6	53.6	53.6	47	33.9	3	8	270	0.00	30.174 
10:35	53.8	53.8	53.8	47	34.0	2	6	315	0.00	30.174 
10:40	53.8	53.8	53.8	45	33.0	4	10	248	0.00	30.174 
10:45	53.6	53.6	53.6	45	32.8	4	9	270	0.00	30.172 
10:50	53.9	53.9	53.9	46	33.6	2	5	315	0.00	30.172 
10:55	54.5	54.5	54.5	47	34.7	2	7	270	0.00	30.172 
11:00	54.2	54.2	54.2	42	31.6	4	9	292	0.00	30.176 
11:05	54.5	54.5	54.5	43	32.5	3	6	338	0.00	30.176 
11:10	54.4	54.4	54.4	40	30.6	4	9	315	0.00	30.176 
11:15	54.5	54.5	54.5	41	31.3	3	10	270	0.00	30.169 
11:20	54.8	54.8	54.8	42	32.2	3	5	315	0.00	30.169 
11:25	55.1	55.1	55.1	39	30.6	4	10	270	0.00	30.169 
11:30	55.4	55.4	55.4	41	32.1	3	8	270	0.00	30.170 
11:35	55.6	55.6	55.6	42	32.9	3	9	270	0.00	30.170 
11:40	55.9	55.9	55.9	42	33.1	3	7	338	0.00	30.170 
11:45	55.9	55.9	55.9	40	31.9	3	10	270	0.00	30.166 
11:50	55.9	55.9	55.9	43	33.7	3	6	270	0.00	30.166 
11:55	56.2	56.2	56.2	39	31.6	3	8	270	0.00	30.166 
12:00	56.3	56.3	56.3	39	31.7	4	10	270	0.00	30.164 
12:05	56.2	56.2	56.2	38	30.9	4	9	315	0.00	30.164 
12:10	56.5	56.5	56.5	39	31.8	2	5	292	0.00	30.164 
12:15	57.0	57.0	57.0	40	32.9	3	7	270	0.00	30.163 
12:20	57.3	57.3	57.3	39	32.6	3	7	338	0.00	30.163 
12:25	57.0	57.0	57.0	36	30.3	4	11	270	0.00	30.163 
12:30	56.9	56.9	56.9	35	29.5	4	10	270	0.00	30.160 
12:35	57.2	57.2	57.2	35	29.8	3	6	315	0.00	30.160 
12:40	57.3	57.3	57.3	35	29.9	3	7	315	0.00	30.160 
12:45	57.6	57.6	57.6	33	28.7	3	6	338	0.00	30.156 
12:50	58.0	58.0	58.0	33	29.1	3	7	270	0.00	30.156 
12:55	58.4	58.4	58.4	35	30.9	3	6	270	0.00	30.156 
13:00	58.4	58.4	58.4	31	27.9	4	11	270	0.00	30.157 
13:05	58.1	58.1	58.1	29	26.0	3	8	338	0.00	30.157 
13:10	58.1	58.1	58.1	30	26.8	4	10	315	0.00	30.157 
13:15	58.1	58.1	58.1	27	24.3	3	7	315	0.00	30.157 
13:20	58.7	58.7	58.7	30	27.4	2	7	315	0.00	30.157 
13:25	58.9	58.9	58.9	26	24.1	3	7	270	0.00	30.157 
13:30	58.7	58.7	58.7	25	23.0	4	9	292	0.00	30.154 
13:35	58.7	58.7	58.7	26	23.9	3	9	270	0.00	30.154 
13:40	58.7	58.7	58.7	25	23.0	5	11	270	0.00	30.154 
13:45	58.7	58.7	58.7	26	23.9	3	5	338	0.00	30.151 
13:50	58.6	58.6	58.6	26	23.8	4	14	270	0.00	30.151 
13:55	58.9	58.9	58.9	24	22.2	4	10	270	0.00	30.151 
14:00	59.2	59.2	59.2	26	24.3	3	10	270	0.00	30.152 
14:05	59.3	59.3	59.3	25	23.5	2	7	315	0.00	30.152 
14:10	59.3	59.3	59.3	24	22.5	4	11	270	0.00	30.152 
14:15	59.5	59.5	59.5	24	22.7	4	11	338	0.00	30.156 
14:20	59.2	59.2	59.2	22	20.4	3	13	338	0.00	30.156 
14:25	59.3	59.3	59.3	24	22.5	4	13	292	0.00	30.156 
14:30	59.2	59.2	59.2	24	22.4	4	12	315	0.00	30.151 
14:35	59.2	59.2	59.2	23	21.4	4	13	270	0.00	30.151 
14:40	59.2	59.2	59.2	21	19.3	4	9	338	0.00	30.151 
14:45	59.0	59.0	59.0	22	20.2	5	12	292	0.00	30.153 
14:50	59.3	59.3	59.3	22	20.5	3	7	270	0.00	30.153 
14:55	59.3	59.3	59.3	22	20.5	3	12	270	0.00	30.153 
15:00	59.5	59.5	59.5	24	22.7	3	11	270	0.00	30.145 
15:05	59.5	59.5	59.5	24	22.7	5	12	338	0.00	30.145 
15:10	59.6	59.6	59.6	24	22.8	2	7	292	0.00	30.145 
15:15	59.8	59.8	59.8	24	22.9	4	7	270	0.00	30.142 
15:20	59.6	59.6	59.6	25	23.7	4	11	315	0.00	30.142 
15:25	59.2	59.2	59.2	25	23.4	5	12	292	0.00	30.142 
15:30	59.0	59.0	59.0	24	22.3	5	9	315	0.00	30.134 
15:35	59.3	59.3	59.3	25	23.5	3	16	338	0.00	30.134 
15:40	59.2	59.2	59.2	22	20.4	4	15	315	0.00	30.134 
15:45	58.9	58.9	58.9	24	22.2	4	10	315	0.00	30.139 
15:50	59.0	59.0	59.0	23	21.3	3	11	338	0.00	30.139 
15:55	59.0	59.0	59.0	24	22.3	4	13	292	0.00	30.139 
16:00	59.3	59.3	59.3	26	24.4	2	9	315	0.00	30.129 
16:05	59.6	59.6	59.6	23	21.8	4	14	315	0.00	30.129 
16:10	59.3	59.3	59.3	22	20.5	5	10	270	0.00	30.129 
16:15	59.2	59.2	59.2	22	20.4	4	9	292	0.00	30.127 
16:20	59.2	59.2	59.2	22	20.4	5	12	292	0.00	30.127 
16:25	59.0	59.0	59.0	24	22.3	3	7	315	0.00	30.127 
16:30	59.2	59.2	59.2	24	22.4	3	11	292	0.00	30.118 
16:35	59.2	59.2	59.2	24	22.4	3	10	292	0.00	30.118 
16:40	59.5	59.5	59.5	22	20.6	4	7	270	0.00	30.118 
16:45	59.3	59.3	59.3	22	20.5	4	12	315	0.00	30.112 
16:50	59.3	59.3	59.3	23	21.5	2	7	292	0.00	30.112 
16:55	59.2	59.2	59.2	21	19.3	5	9	292	0.00	30.112 
17:00	58.9	58.9	58.9	21	19.0	4	13	270	0.00	30.112 
17:05	58.9	58.9	58.9	22	20.1	3	7	315	0.00	30.112 
17:10	58.9	58.9	58.9	24	22.2	2	6	0	0.00	30.112 
17:15	59.0	59.0	59.0	21	19.1	5	11	270	0.00	30.106 
17:20	59.0	59.0	59.0	21	19.1	4	9	270	0.00	30.106 
17:25	59.0	59.0	59.0	22	20.2	3	7	270	0.00	30.106 
17:30	59.3	59.3	59.3	21	19.4	2	6	270	0.00	30.100 
17:35	59.2	59.2	59.2	21	19.3	4	12	270	0.00	30.100 
17:40	59.2	59.2	59.2	22	20.4	3	7	270	0.00	30.100 
17:45	59.2	59.2	59.2	21	19.3	3	5	270	0.00	30.101 
17:50	59.2	59.2	59.2	21	19.3	3	9	270	0.00	30.101 
17:55	59.2	59.2	59.2	23	21.4	2	5	270	0.00	30.101 
18:00	59.2	59.2	59.2	22	20.4	3	9	292	0.00	30.101 
18:05	59.2	59.2	59.2	22	20.4	2	7	292	0.00	30.101 
18:10	59.0	59.0	59.0	22	20.2	2	5	338	0.00	30.101 
18:15	58.9	58.9	58.9	21	19.0	3	10	292	0.00	30.101 
18:20	58.9	58.9	58.9	22	20.1	3	7	270	0.00	30.101 
18:25	58.9	58.9	58.9	21	19.0	4	9	270	0.00	30.101 
18:30	58.9	58.9	58.9	22	20.1	2	6	292	0.00	30.097 
18:35	58.9	58.9	58.9	22	20.1	4	10	270	0.00	30.097 
18:40	58.7	58.7	58.7	21	18.9	3	7	315	0.00	30.097 
18:45	58.7	58.7	58.7	22	20.0	2	7	338	0.00	30.096 
18:50	58.7	58.7	58.7	22	20.0	2	6	270	0.00	30.096 
18:55	58.7	58.7	58.7	21	18.9	2	6	270	0.00	30.096 
19:00	58.6	58.6	58.6	23	20.9	1	3	292	0.00	30.095 
19:05	58.6	58.6	58.6	23	20.9	1	4	292	0.00	30.095 
19:10	58.6	58.6	58.6	23	20.9	2	5	315	0.00	30.095 
19:15	58.4	58.4	58.4	22	19.7	2	5	0	0.00	30.093 
19:20	58.3	58.3	58.3	22	19.6	1	4	292	0.00	30.093 
19:25	58.1	58.1	58.1	22	19.5	1	4	270	0.00	30.093 
19:30	58.0	58.0	58.0	22	19.4	1	4	292	0.00	30.089 
19:35	57.8	57.8	57.8	22	19.2	1	4	315	0.00	30.089 
19:40	57.8	57.8	57.8	22	19.2	2	4	270	0.00	30.089 
19:45	57.5	57.5	57.5	22	19.0	0	3	270	0.00	30.082 
19:50	57.3	57.3	57.3	22	18.8	0	3	270	0.00	30.082 
19:55	57.0	57.0	57.0	23	19.6	1	4	270	0.00	30.082 
20:00	56.9	56.9	56.9	24	20.5	0	3	270	0.00	30.081 
20:05	56.6	56.6	56.6	24	20.2	0	1	270	0.00	30.081 
20:10	56.2	56.2	56.2	24	19.9	0	1	270	0.00	30.081 
20:15	55.9	55.9	55.9	25	20.6	0	0	---	0.00	30.075 
20:20	55.6	55.6	55.6	26	21.3	0	1	270	0.00	30.075 
20:25	55.0	55.0	55.0	26	20.8	0	0	---	0.00	30.075 
20:30	54.5	54.5	54.5	28	22.1	0	0	---	0.00	30.079 
20:35	53.9	53.9	53.9	27	20.7	0	0	---	0.00	30.079 
20:40	53.3	53.3	53.3	28	21.0	0	0	---	0.00	30.079 
20:45	52.9	52.9	52.9	29	21.5	0	0	---	0.00	30.075 
20:50	52.3	52.3	52.3	31	22.6	0	0	---	0.00	30.075 
20:55	51.9	51.9	51.9	31	22.2	0	0	---	0.00	30.075 
21:00	51.4	51.4	51.4	31	21.8	0	0	---	0.00	30.077 
21:05	51.3	51.3	51.3	33	23.2	0	0	---	0.00	30.077 
21:10	51.0	51.0	51.0	34	23.6	0	0	---	0.00	30.077 
21:15	51.0	51.0	51.0	38	26.3	0	0	---	0.00	30.077 
21:20	50.8	50.8	50.8	40	27.4	0	0	---	0.00	30.077 
21:25	50.8	50.8	50.8	39	26.7	0	0	---	0.00	30.077 
21:30	51.0	51.0	51.0	39	26.9	0	0	---	0.00	30.085 
21:35	51.1	51.1	51.1	39	27.0	0	1	270	0.00	30.085 
21:40	51.4	51.4	51.4	39	27.3	0	0	---	0.00	30.085 
21:45	51.6	51.6	51.6	39	27.5	0	0	---	0.00	30.084 
21:50	51.7	51.7	51.7	37	26.3	0	0	---	0.00	30.084 
21:55	52.0	52.0	52.0	39	27.8	0	0	---	0.00	30.084 
22:00	52.0	52.0	52.0	39	27.8	0	0	---	0.00	30.086 
22:05	52.2	52.2	52.2	36	26.1	0	1	270	0.00	30.086 
22:10	52.3	52.3	52.3	36	26.1	0	3	270	0.00	30.086 
22:15	52.9	52.9	52.9	33	24.6	1	2	270	0.00	30.091 
22:20	53.9	53.9	53.9	33	25.5	1	5	270	0.00	30.091 
22:25	54.8	54.8	54.8	33	26.3	1	4	315	0.00	30.091 
22:30	55.3	55.3	55.3	33	26.7	1	4	315	0.00	30.090 
22:35	55.6	55.6	55.6	32	26.2	2	5	292	0.00	30.090 
22:40	55.6	55.6	55.6	33	27.0	1	5	270	0.00	30.090 
22:45	55.3	55.3	55.3	34	27.4	3	10	292	0.00	30.094 
22:50	55.0	55.0	55.0	36	28.5	4	10	292	0.00	30.094 
22:55	54.7	54.7	54.7	36	28.3	3	11	315	0.00	30.094 
23:00	54.5	54.5	54.5	37	28.8	2	7	270	0.00	30.092 
23:05	54.5	54.5	54.5	37	28.8	2	5	292	0.00	30.092 
23:10	54.4	54.4	54.4	38	29.3	2	7	292	0.00	30.092 
23:15	53.8	53.8	53.8	41	30.7	2	7	270	0.00	30.094 
23:20	53.2	53.2	53.2	43	31.3	1	6	292	0.00	30.094 
23:25	52.8	52.8	52.8	44	31.5	1	5	270	0.00	30.094 
23:30	52.6	52.6	52.6	45	31.9	1	3	0	0.00	30.095 
23:35	52.5	52.5	52.5	46	32.3	0	5	248	0.00	30.095 
23:40	52.2	52.2	52.2	47	32.6	1	4	248	0.00	30.095 
23:45	52.2	52.2	52.2	47	32.6	1	4	292	0.00	30.090 
23:50	52.0	52.0	52.0	48	32.9	0	2	292	0.00	30.090 
23:55	51.9	51.9	51.9	49	33.3	0	2	292	0.00	30.090 

CoCoRaHS
IN-AL-39
A2 Web Hosting
Creative Commons License
GoDaddy
search engine by freefind advanced

loaded 2018-11-17 00:05:36 • last modified 2010-11-18 10:43:29
Privacy PolicyDisclaimer
• wx.awcolley.com is powered by PmWiki v.2002016 •
• all content (unless otherwise noted) © 2018 A W Colley